createdAt,value
2018-06-04T00:00:38.087Z,60.14
2018-06-04T00:03:06.716Z,60.47
2018-06-04T00:05:35.229Z,61.03
2018-06-04T00:08:03.754Z,60.68
2018-06-04T00:10:32.444Z,60.71
2018-06-04T00:13:01.062Z,61.16
2018-06-04T00:15:30.216Z,61.29
2018-06-04T00:17:58.905Z,61.14
2018-06-04T00:20:27.559Z,60.48
2018-06-04T00:22:56.241Z,60.58
2018-06-04T00:25:24.811Z,60.74
2018-06-04T00:27:53.409Z,61.89
2018-06-04T00:30:21.997Z,60.96
2018-06-04T00:32:50.616Z,60.87
2018-06-04T00:35:19.097Z,61.63
2018-06-04T00:37:47.709Z,61.25
2018-06-04T00:40:16.223Z,61.15
2018-06-04T00:42:45.005Z,61.40
2018-06-04T00:45:13.551Z,61.14
2018-06-04T00:47:42.133Z,62.07
2018-06-04T00:50:10.705Z,62.17
2018-06-04T00:52:39.302Z,62.06
2018-06-04T00:55:08.081Z,61.95
2018-06-04T00:57:36.606Z,61.72
2018-06-04T01:00:05.062Z,62.00
2018-06-04T01:02:33.693Z,61.71
2018-06-04T01:05:02.266Z,62.47
2018-06-04T01:07:30.912Z,61.92
2018-06-04T01:09:59.687Z,61.90
2018-06-04T01:12:28.204Z,62.41
2018-06-04T01:14:56.739Z,61.66
2018-06-04T01:17:25.350Z,61.63
2018-06-04T01:19:53.932Z,62.28
2018-06-04T01:22:22.563Z,61.61
2018-06-04T01:24:51.249Z,62.36
2018-06-04T01:27:19.779Z,62.72
2018-06-04T01:29:48.349Z,62.13
2018-06-04T01:32:16.925Z,62.59
2018-06-04T01:34:45.752Z,62.89
2018-06-04T01:37:14.294Z,62.41
2018-06-04T01:39:42.907Z,62.88
2018-06-04T01:42:11.531Z,62.42
2018-06-04T01:44:40.062Z,62.98
2018-06-04T01:47:08.604Z,62.91
2018-06-04T01:49:37.171Z,62.77
2018-06-04T01:52:05.804Z,62.43
2018-06-04T01:54:34.298Z,63.35
2018-06-04T01:57:02.860Z,63.36
2018-06-04T01:59:31.335Z,62.24
2018-06-04T02:01:59.905Z,63.01
2018-06-04T02:04:28.440Z,62.81
2018-06-04T02:06:56.959Z,62.48
2018-06-04T02:09:25.429Z,62.97
2018-06-04T02:11:53.960Z,62.84
2018-06-04T02:14:22.492Z,62.75
2018-06-04T02:16:51.132Z,62.82
2018-06-04T02:19:19.775Z,63.34
2018-06-04T02:21:48.306Z,62.77
2018-06-04T02:24:16.936Z,62.59
2018-06-04T02:26:45.457Z,62.66
2018-06-04T02:29:14.147Z,62.68
2018-06-04T02:31:42.732Z,62.80
2018-06-04T02:34:11.835Z,63.60
2018-06-04T02:36:40.413Z,62.89
2018-06-04T02:39:09.021Z,63.59
2018-06-04T02:41:37.554Z,63.04
2018-06-04T02:44:06.170Z,63.62
2018-06-04T02:46:34.855Z,63.07
2018-06-04T02:49:03.421Z,63.02
2018-06-04T02:51:31.960Z,63.06
2018-06-04T02:54:00.537Z,63.92
2018-06-04T02:56:29.063Z,63.80
2018-06-04T02:58:57.623Z,63.39
2018-06-04T03:01:26.202Z,63.02
2018-06-04T03:03:55.140Z,63.08
2018-06-04T03:06:23.676Z,63.00
2018-06-04T03:08:52.324Z,62.97
2018-06-04T03:11:20.902Z,62.78
2018-06-04T03:13:50.306Z,63.66
2018-06-04T03:16:18.855Z,64.08
2018-06-04T03:18:47.447Z,62.94
2018-06-04T03:21:16.129Z,63.42
2018-06-04T03:23:44.648Z,63.98
2018-06-04T03:26:14.102Z,64.07
2018-06-04T03:28:42.597Z,63.28
2018-06-04T03:31:11.060Z,63.79
2018-06-04T03:33:39.726Z,63.40
2018-06-04T03:36:08.213Z,63.79
2018-06-04T03:38:36.701Z,63.20
2018-06-04T03:41:05.349Z,62.68
2018-06-04T03:43:33.893Z,62.88
2018-06-04T03:46:02.402Z,62.56
2018-06-04T03:48:31.004Z,62.75
2018-06-04T03:50:59.565Z,62.63
2018-06-04T03:53:28.244Z,62.41
2018-06-04T03:55:56.846Z,63.18
2018-06-04T03:58:25.438Z,62.76
2018-06-04T04:00:53.942Z,62.56
2018-06-04T04:03:22.422Z,62.33
2018-06-04T04:05:50.939Z,62.54
2018-06-04T04:08:19.463Z,62.17
2018-06-04T04:10:48.014Z,62.02
2018-06-04T04:13:16.539Z,62.49
2018-06-04T04:15:45.103Z,62.78
2018-06-04T04:18:13.626Z,62.97
2018-06-04T04:20:42.221Z,63.33
2018-06-04T04:23:10.851Z,62.76
2018-06-04T04:25:39.372Z,61.83
2018-06-04T04:28:07.896Z,62.25
2018-06-04T04:30:36.427Z,62.13
2018-06-04T04:33:04.900Z,61.81
2018-06-04T04:35:33.489Z,61.69
2018-06-04T04:38:02.055Z,62.27
2018-06-04T04:40:30.665Z,61.92
2018-06-04T04:42:59.196Z,61.63
2018-06-04T04:45:27.740Z,61.94
2018-06-04T04:47:56.231Z,62.11
2018-06-04T04:50:24.849Z,61.55
2018-06-04T04:52:53.473Z,61.33
2018-06-04T04:55:22.303Z,60.84
2018-06-04T04:57:50.861Z,61.08
2018-06-04T05:00:19.406Z,60.77
2018-06-04T05:02:47.923Z,60.90
2018-06-04T05:05:16.655Z,60.23
2018-06-04T05:07:45.167Z,60.55
2018-06-04T05:10:13.833Z,60.64
2018-06-04T05:12:42.355Z,59.88
2018-06-04T05:15:11.018Z,59.65
2018-06-04T05:17:39.925Z,59.05
2018-06-04T05:20:09.474Z,58.44
2018-06-04T05:22:38.396Z,58.88
2018-06-04T05:25:07.166Z,58.61
2018-06-04T05:27:36.490Z,58.64
2018-06-04T05:30:05.217Z,58.64
2018-06-04T05:32:33.937Z,57.84
2018-06-04T05:35:02.604Z,58.08
2018-06-04T05:37:31.263Z,57.72
2018-06-04T05:40:00.630Z,57.97
2018-06-04T05:42:29.372Z,57.76
2018-06-04T05:44:58.083Z,57.40
2018-06-04T05:47:27.151Z,56.35
2018-06-04T05:49:55.956Z,56.39
2018-06-04T05:52:25.848Z,55.95
2018-06-04T05:54:54.824Z,54.81
2018-06-04T05:57:23.785Z,54.27
2018-06-04T05:59:52.424Z,53.34
2018-06-04T06:02:21.400Z,52.62
2018-06-04T06:04:50.025Z,52.24
2018-06-04T06:07:18.878Z,51.22
2018-06-04T06:09:47.636Z,49.16
2018-06-04T06:12:16.595Z,48.08
2018-06-04T06:14:45.119Z,47.22
2018-06-04T06:17:13.711Z,46.86
2018-06-04T06:19:42.631Z,46.72
2018-06-04T06:22:12.884Z,42.86
2018-06-04T06:24:41.488Z,45.23
2018-06-04T06:27:11.453Z,43.60
2018-06-04T06:29:40.504Z,41.67
2018-06-04T06:32:09.148Z,41.35
2018-06-04T06:34:37.764Z,42.40
2018-06-04T06:37:06.536Z,41.02
2018-06-04T06:39:35.246Z,39.68
2018-06-04T06:42:03.907Z,38.53
2018-06-04T06:44:32.636Z,39.55
2018-06-04T06:47:01.299Z,38.14
2018-06-04T06:49:30.634Z,37.82
2018-06-04T06:51:59.797Z,36.47
2018-06-04T06:54:28.923Z,36.41
2018-06-04T06:56:57.774Z,36.36
2018-06-04T06:59:26.671Z,36.11
2018-06-04T07:01:55.904Z,34.95
2018-06-04T07:04:25.358Z,35.60
2018-06-04T07:06:54.055Z,34.92
2018-06-04T07:09:22.730Z,31.46
2018-06-04T07:11:51.340Z,31.52
2018-06-04T07:14:20.029Z,30.46
2018-06-04T07:16:48.692Z,31.43
2018-06-04T07:19:17.181Z,30.31
2018-06-04T07:21:45.848Z,31.34
2018-06-04T07:24:14.529Z,31.50
2018-06-04T07:26:43.390Z,30.65
2018-06-04T07:29:12.173Z,29.75
2018-06-04T07:31:40.997Z,29.31
2018-06-04T07:34:09.683Z,27.91
2018-06-04T07:36:38.804Z,26.73
2018-06-04T07:39:08.918Z,27.25
2018-06-04T07:41:38.053Z,27.90
2018-06-04T07:44:06.979Z,26.48
2018-06-04T07:46:35.797Z,27.16
2018-06-04T07:49:04.926Z,25.60
2018-06-04T07:51:34.414Z,24.48
2018-06-04T07:54:03.063Z,23.49
2018-06-04T07:56:31.647Z,24.25
2018-06-04T07:59:00.213Z,23.90
2018-06-04T08:01:28.833Z,24.63
2018-06-04T08:04:03.766Z,24.43
2018-06-04T08:06:32.234Z,23.03
2018-06-04T08:09:00.690Z,22.99
2018-06-04T08:11:29.229Z,24.40
2018-06-04T08:13:57.717Z,23.60
2018-06-04T08:16:26.567Z,23.64
2018-06-04T08:18:55.106Z,23.37
2018-06-04T08:21:23.698Z,24.04
2018-06-04T08:23:52.265Z,23.70
2018-06-04T08:26:20.812Z,23.64
2018-06-04T08:28:49.346Z,23.45
2018-06-04T08:31:17.861Z,22.48
2018-06-04T08:33:46.396Z,23.62
2018-06-04T08:36:14.864Z,22.82
2018-06-04T08:38:43.440Z,23.22
2018-06-04T08:41:12.055Z,23.68
2018-06-04T08:43:40.567Z,23.70
2018-06-04T08:46:09.037Z,22.54
2018-06-04T08:48:37.575Z,21.03
2018-06-04T08:51:06.124Z,20.10
2018-06-04T08:53:34.628Z,20.86
2018-06-04T08:56:03.183Z,21.27
2018-06-04T08:58:31.728Z,21.07
2018-06-04T09:01:00.184Z,20.00
2018-06-04T09:03:28.788Z,19.98
2018-06-04T09:05:57.636Z,19.13
2018-06-04T09:08:26.276Z,19.68
2018-06-04T09:10:54.749Z,19.52
2018-06-04T09:13:23.247Z,19.79
2018-06-04T09:15:52.037Z,18.81
2018-06-04T09:18:20.734Z,18.74
2018-06-04T09:20:49.490Z,18.11
2018-06-04T09:23:18.019Z,17.91
2018-06-04T09:25:46.635Z,17.72
2018-06-04T09:28:15.166Z,17.86
2018-06-04T09:30:43.622Z,16.85
2018-06-04T09:33:12.869Z,16.75
2018-06-04T09:35:41.620Z,16.46
2018-06-04T09:38:11.174Z,16.64
2018-06-04T09:40:40.141Z,16.72
2018-06-04T09:43:08.970Z,16.98
2018-06-04T09:45:37.938Z,16.56
2018-06-04T09:48:06.733Z,16.13
2018-06-04T09:50:35.429Z,16.50
2018-06-04T09:53:04.366Z,16.76
2018-06-04T09:55:33.477Z,16.62
2018-06-04T09:58:02.285Z,16.87
2018-06-04T10:00:35.072Z,17.03
2018-06-04T10:03:04.868Z,18.05
2018-06-04T10:05:33.569Z,18.87
2018-06-04T10:08:02.277Z,18.17
2018-06-04T10:10:30.957Z,17.24
2018-06-04T10:12:59.626Z,16.70
2018-06-04T10:15:28.474Z,16.55
2018-06-04T10:17:57.361Z,16.96
2018-06-04T10:20:26.125Z,15.78
2018-06-04T10:22:54.828Z,15.91
2018-06-04T10:25:23.552Z,14.82
2018-06-04T10:27:52.201Z,15.17
2018-06-04T10:30:21.277Z,15.89
2018-06-04T10:32:50.172Z,14.63
2018-06-04T10:35:21.007Z,14.77
2018-06-04T10:37:49.813Z,15.43
2018-06-04T10:40:19.123Z,15.10
2018-06-04T10:42:47.800Z,15.46
2018-06-04T10:45:16.659Z,16.61
2018-06-04T10:47:46.005Z,16.51
2018-06-04T10:50:14.879Z,15.92
2018-06-04T10:52:43.712Z,16.36
2018-06-04T10:55:12.839Z,15.67
2018-06-04T10:57:41.632Z,16.17
2018-06-04T11:00:10.532Z,16.54
2018-06-04T11:02:39.733Z,17.06
2018-06-04T11:05:09.261Z,16.09
2018-06-04T11:07:37.984Z,16.49
2018-06-04T11:10:06.940Z,16.92
2018-06-04T11:12:35.860Z,16.98
2018-06-04T11:15:04.484Z,16.91
2018-06-04T11:17:33.125Z,17.43
2018-06-04T11:20:02.021Z,16.39
2018-06-04T11:22:30.789Z,16.36
2018-06-04T11:24:59.699Z,17.08
2018-06-04T11:27:28.620Z,17.57
2018-06-04T11:29:59.664Z,18.64
2018-06-04T11:32:28.571Z,19.16
2018-06-04T11:34:58.491Z,19.66
2018-06-04T11:37:27.573Z,19.99
2018-06-04T11:39:56.370Z,21.38
2018-06-04T11:42:25.358Z,21.27
2018-06-04T11:44:53.975Z,21.41
2018-06-04T11:47:22.810Z,22.39
2018-06-04T11:49:51.598Z,23.35
2018-06-04T11:52:20.805Z,23.63
2018-06-04T11:54:49.877Z,23.23
2018-06-04T11:57:18.802Z,23.86
2018-06-04T11:59:47.797Z,26.11
2018-06-04T12:02:16.591Z,25.21
2018-06-04T12:04:45.427Z,25.63
2018-06-04T12:07:14.150Z,25.24
2018-06-04T12:09:42.733Z,24.87
2018-06-04T12:12:11.676Z,25.68
2018-06-04T12:14:40.414Z,25.28
2018-06-04T12:17:09.305Z,25.54
2018-06-04T12:19:38.214Z,25.88
2018-06-04T12:22:07.000Z,25.71
2018-06-04T12:24:35.759Z,25.39
2018-06-04T12:27:04.556Z,25.37
2018-06-04T12:29:33.255Z,25.18
2018-06-04T12:32:02.049Z,26.25
2018-06-04T12:34:31.161Z,25.77
2018-06-04T12:37:01.477Z,26.01
2018-06-04T12:39:30.487Z,26.90
2018-06-04T12:41:59.445Z,26.35
2018-06-04T12:44:28.220Z,26.28
2018-06-04T12:46:57.116Z,27.33
2018-06-04T12:49:26.111Z,27.19
2018-06-04T12:51:55.001Z,27.90
2018-06-04T12:54:24.403Z,28.02
2018-06-04T12:56:53.398Z,27.94
2018-06-04T12:59:22.316Z,27.20
2018-06-04T13:01:51.497Z,26.76
2018-06-04T13:04:20.509Z,26.46
2018-06-04T13:06:49.706Z,26.73
2018-06-04T13:09:18.934Z,27.43
2018-06-04T13:11:47.792Z,26.98
2018-06-04T13:14:16.550Z,27.27
2018-06-04T13:16:45.620Z,27.93
2018-06-04T13:19:14.552Z,27.85
2018-06-04T13:21:43.488Z,26.50
2018-06-04T13:24:12.340Z,27.10
2018-06-04T13:26:41.324Z,28.14
2018-06-04T13:29:10.307Z,28.44
2018-06-04T13:31:39.233Z,28.19
2018-06-04T13:34:08.840Z,29.16
2018-06-04T13:36:37.799Z,28.44
2018-06-04T13:39:09.047Z,27.40
2018-06-04T13:41:37.960Z,27.42
2018-06-04T13:44:06.746Z,27.56
2018-06-04T13:46:35.644Z,27.51
2018-06-04T13:49:04.407Z,28.52
2018-06-04T13:51:33.428Z,27.60
2018-06-04T13:54:03.054Z,28.59
2018-06-04T13:56:32.007Z,29.79
2018-06-04T13:59:01.155Z,29.70
2018-06-04T14:01:29.925Z,29.21
2018-06-04T14:03:58.879Z,29.71
2018-06-04T14:06:27.792Z,29.50
2018-06-04T14:08:57.169Z,29.06
2018-06-04T14:11:25.986Z,29.35
2018-06-04T14:13:54.780Z,29.52
2018-06-04T14:16:23.796Z,30.43
2018-06-04T14:18:52.629Z,30.53
2018-06-04T14:21:21.604Z,30.04
2018-06-04T14:23:51.224Z,30.81
2018-06-04T14:26:20.189Z,30.51
2018-06-04T14:28:49.207Z,28.76
2018-06-04T14:31:18.640Z,30.09
2018-06-04T14:33:47.510Z,30.06
2018-06-04T14:36:16.355Z,29.27
2018-06-04T14:38:45.223Z,29.91
2018-06-04T14:41:14.296Z,30.20
2018-06-04T14:43:43.145Z,30.54
2018-06-04T14:46:12.328Z,30.57
2018-06-04T14:48:41.080Z,30.74
2018-06-04T14:51:09.873Z,31.05
2018-06-04T14:53:38.737Z,31.42
2018-06-04T14:56:07.500Z,31.93
2018-06-04T14:58:41.768Z,32.04
2018-06-04T15:01:10.597Z,32.13
2018-06-04T15:03:39.519Z,31.91
2018-06-04T15:06:09.023Z,32.05
2018-06-04T15:08:37.943Z,32.03
2018-06-04T15:11:06.723Z,31.76
2018-06-04T15:13:35.508Z,31.99
2018-06-04T15:16:04.335Z,32.18
2018-06-04T15:18:33.094Z,32.15
2018-06-04T15:21:01.916Z,32.00
2018-06-04T15:23:30.875Z,31.99
2018-06-04T15:26:00.753Z,32.19
2018-06-04T15:28:29.520Z,32.41
2018-06-04T15:30:58.416Z,32.88
2018-06-04T15:33:28.368Z,32.98
2018-06-04T15:35:57.543Z,32.77
2018-06-04T15:38:26.607Z,32.81
2018-06-04T15:40:55.561Z,33.11
2018-06-04T15:43:25.527Z,33.34
2018-06-04T15:45:54.486Z,33.31
2018-06-04T15:48:26.879Z,33.68
2018-06-04T15:50:56.507Z,33.40
2018-06-04T15:53:32.682Z,34.17
2018-06-04T15:56:03.122Z,33.79
2018-06-04T15:58:35.134Z,34.25
2018-06-04T16:03:42.726Z,34.67
2018-06-04T16:06:12.924Z,34.58
2018-06-04T16:08:42.879Z,34.82
2018-06-04T16:11:13.456Z,34.84
2018-06-04T16:13:42.406Z,35.31
2018-06-04T16:16:11.281Z,35.58
2018-06-04T16:18:40.285Z,35.84
2018-06-04T16:21:09.212Z,36.08
2018-06-04T16:23:37.875Z,35.82
2018-06-04T16:26:06.662Z,36.07
2018-06-04T16:28:36.824Z,36.56
2018-06-04T16:31:05.602Z,35.62
2018-06-04T16:33:37.717Z,35.84
2018-06-04T16:36:06.524Z,36.20
2018-06-04T16:38:35.180Z,36.93
2018-06-04T16:41:03.791Z,36.38
2018-06-04T16:43:32.503Z,36.69
2018-06-04T16:46:01.266Z,36.44
2018-06-04T16:48:29.903Z,36.81
2018-06-04T16:50:58.509Z,37.77
2018-06-04T16:53:27.372Z,37.05
2018-06-04T16:55:56.059Z,37.73
2018-06-04T16:58:24.862Z,37.91
2018-06-04T17:00:53.553Z,36.94
2018-06-04T17:03:22.356Z,38.01
2018-06-04T17:05:51.099Z,38.14
2018-06-04T17:08:19.753Z,38.12
2018-06-04T17:10:48.472Z,37.82
2018-06-04T17:13:17.181Z,38.27
2018-06-04T17:15:45.862Z,38.42
2018-06-04T17:18:14.572Z,37.58
2018-06-04T17:20:43.325Z,37.21
2018-06-04T17:23:11.994Z,38.43
2018-06-04T17:25:40.776Z,38.45
2018-06-04T17:28:09.584Z,37.89
2018-06-04T17:30:38.291Z,38.67
2018-06-04T17:33:06.945Z,39.29
2018-06-04T17:35:35.681Z,39.35
2018-06-04T17:38:04.425Z,39.42
2018-06-04T17:40:33.075Z,39.63
2018-06-04T17:43:01.837Z,39.51
2018-06-04T17:45:30.401Z,39.07
2018-06-04T17:47:59.003Z,39.91
2018-06-04T17:50:27.872Z,39.59
2018-06-04T17:52:58.220Z,39.69
2018-06-04T17:55:27.259Z,39.83
2018-06-04T17:57:57.145Z,40.24
2018-06-04T18:00:26.176Z,40.91
2018-06-04T18:02:55.124Z,41.11
2018-06-04T18:05:24.101Z,41.27
2018-06-04T18:07:52.995Z,40.64
2018-06-04T18:10:22.854Z,40.37
2018-06-04T18:12:51.831Z,40.64
2018-06-04T18:15:20.696Z,40.92
2018-06-04T18:17:49.659Z,40.80
2018-06-04T18:20:18.526Z,40.89
2018-06-04T18:22:47.987Z,41.37
2018-06-04T18:25:17.111Z,41.88
2018-06-04T18:27:46.272Z,42.02
2018-06-04T18:30:15.615Z,41.32
2018-06-04T18:32:45.086Z,41.38
2018-06-04T18:35:14.001Z,42.15
2018-06-04T18:37:42.935Z,42.29
2018-06-04T18:40:11.960Z,42.55
2018-06-04T18:42:41.309Z,42.20
2018-06-04T18:45:10.859Z,42.26
2018-06-04T18:47:39.936Z,42.87
2018-06-04T18:50:09.108Z,43.13
2018-06-04T18:52:37.774Z,43.10
2018-06-04T18:55:11.726Z,43.30
2018-06-04T18:57:40.695Z,42.67
2018-06-04T19:00:09.318Z,43.45
2018-06-04T19:02:38.028Z,43.59
2018-06-04T19:05:07.072Z,43.57
2018-06-04T19:07:35.891Z,42.95
2018-06-04T19:10:04.582Z,43.23
2018-06-04T19:12:33.220Z,44.55
2018-06-04T19:15:01.933Z,44.25
2018-06-04T19:17:30.635Z,43.13
2018-06-04T19:19:59.422Z,44.06
2018-06-04T19:22:28.107Z,44.19
2018-06-04T19:24:56.956Z,43.34
2018-06-04T19:27:25.652Z,44.26
2018-06-04T19:29:54.488Z,44.32
2018-06-04T19:32:23.284Z,44.30
2018-06-04T19:34:52.055Z,45.00
2018-06-04T19:37:20.795Z,44.78
2018-06-04T19:39:49.614Z,45.05
2018-06-04T19:42:18.331Z,44.89
2018-06-04T19:44:47.775Z,45.38
2018-06-04T19:47:16.568Z,45.15
2018-06-04T19:49:45.283Z,45.09
2018-06-04T19:52:13.832Z,45.88
2018-06-04T19:54:42.671Z,45.34
2018-06-04T19:57:11.380Z,45.24
2018-06-04T19:59:40.073Z,46.42
2018-06-04T20:02:08.669Z,45.86
2018-06-04T20:04:37.335Z,46.41
2018-06-04T20:07:06.151Z,45.49
2018-06-04T20:09:34.876Z,46.48
2018-06-04T20:12:03.522Z,46.23
2018-06-04T20:14:32.547Z,46.92
2018-06-04T20:17:01.236Z,46.52
2018-06-04T20:19:29.919Z,46.49
2018-06-04T20:21:58.737Z,46.42
2018-06-04T20:24:27.533Z,46.73
2018-06-04T20:26:56.201Z,47.01
2018-06-04T20:29:24.751Z,46.89
2018-06-04T20:31:53.299Z,47.78
2018-06-04T20:34:21.942Z,47.50
2018-06-04T20:36:50.664Z,48.15
2018-06-04T20:39:19.449Z,48.27
2018-06-04T20:41:48.084Z,47.98
2018-06-04T20:44:17.021Z,48.98
2018-06-04T20:46:46.183Z,48.73
2018-06-04T20:49:14.788Z,48.52
2018-06-04T20:51:43.425Z,48.61
2018-06-04T20:54:12.073Z,48.94
2018-06-04T20:56:41.103Z,49.00
2018-06-04T20:59:09.744Z,50.07
2018-06-04T21:01:38.376Z,49.47
2018-06-04T21:04:07.048Z,50.24
2018-06-04T21:06:35.653Z,50.58
2018-06-04T21:09:06.319Z,50.22
2018-06-04T21:11:34.899Z,50.28
2018-06-04T21:14:04.284Z,50.87
2018-06-04T21:16:33.093Z,51.25
2018-06-04T21:19:02.473Z,51.10
2018-06-04T21:21:31.544Z,51.40
2018-06-04T21:24:00.512Z,51.89
2018-06-04T21:26:29.484Z,52.26
2018-06-04T21:28:58.132Z,52.18
2018-06-04T21:31:26.719Z,52.27
2018-06-04T21:33:55.321Z,52.70
2018-06-04T21:36:23.893Z,52.88
2018-06-04T21:38:52.645Z,52.88
2018-06-04T21:41:21.212Z,52.62
2018-06-04T21:43:49.812Z,52.89
2018-06-04T21:46:18.422Z,53.64
2018-06-04T21:48:48.689Z,53.45
2018-06-04T21:51:17.257Z,53.30
2018-06-04T21:53:45.799Z,53.87
2018-06-04T21:56:14.220Z,53.96
2018-06-04T21:58:43.204Z,54.09
2018-06-04T22:01:11.867Z,53.82
2018-06-04T22:03:40.474Z,54.49
2018-06-04T22:06:09.074Z,54.11
2018-06-04T22:08:37.674Z,54.38
2018-06-04T22:11:06.303Z,54.17
2018-06-04T22:13:34.893Z,54.37
2018-06-04T22:16:03.421Z,54.38
2018-06-04T22:18:31.982Z,55.25
2018-06-04T22:21:00.673Z,54.59
2018-06-04T22:23:29.239Z,54.34
2018-06-04T22:25:57.845Z,54.65
2018-06-04T22:28:26.491Z,54.45
2018-06-04T22:30:54.993Z,54.44
2018-06-04T22:33:23.598Z,54.75
2018-06-04T22:35:52.200Z,55.19
2018-06-04T22:38:20.750Z,54.78
2018-06-04T22:40:49.362Z,55.61
2018-06-04T22:43:17.988Z,54.86
2018-06-04T22:45:46.579Z,55.55
2018-06-04T22:48:15.277Z,55.94
2018-06-04T22:50:44.147Z,55.65
2018-06-04T22:53:12.696Z,56.28
2018-06-04T22:55:41.325Z,56.12
2018-06-04T22:58:09.903Z,56.32
2018-06-04T23:00:38.385Z,55.98
2018-06-04T23:03:07.285Z,55.98
2018-06-04T23:05:35.776Z,56.43
2018-06-04T23:08:04.454Z,56.54
2018-06-04T23:10:33.068Z,56.87
2018-06-04T23:13:01.708Z,57.13
2018-06-04T23:15:30.232Z,57.30
2018-06-04T23:17:58.764Z,56.75
2018-06-04T23:20:27.550Z,57.20
2018-06-04T23:22:56.105Z,56.47
2018-06-04T23:25:24.756Z,57.02
2018-06-04T23:27:53.337Z,56.99
2018-06-04T23:30:21.922Z,56.35
2018-06-04T23:32:50.451Z,56.13
2018-06-04T23:35:19.060Z,56.10
2018-06-04T23:37:47.615Z,56.00
2018-06-04T23:40:16.134Z,56.19
2018-06-04T23:42:44.732Z,55.77
2018-06-04T23:45:13.342Z,56.20
2018-06-04T23:47:41.858Z,56.27
2018-06-04T23:50:10.491Z,56.42
2018-06-04T23:52:39.125Z,56.38
2018-06-04T23:55:08.514Z,55.69
2018-06-04T23:57:37.002Z,55.84
